Disclaimer

Please do not use the information listed here in-flight or in-navigation, as they are not provided to us by the airports but are provided by volunteers, so they might be outdated.

Search


Regions


Airport information page

Radio informations:
Melbourne Center - 122.1 MHz
Common traffic adv. frequency (CTAF) - 126.7 MHz

Airport informations:
Latitude: 32° 07' 50.00" S
Longitude: 133° 42' 35.00" E
Elevation: 77 feet - 23 meters
Operating hours: N/A
Operating agency: Civil government, landing fees and diplomatic clearance may be required
Timezone: UTC+9:30(+10:30DT)
Fuel: N/A

Runway information:
11/29 - 5709 x 98 feet< - >1740 x 30 meters
17/35 - 3327 x 98 feet< - >1014 x 30 meters

Recent METARs:
YCDU 142100Z AUTO 13009KT 9999 // NCD 12/08 Q1024
YCDU 142100Z AUTO 13009KT 9999 // NCD 12/08 Q1024
YCDU 142200Z AUTO 13013KT 9999 // NCD 16/09 Q1024

Airport on the map: